Latest Coastal Weather Observations for Cape Nelson

IDS60701

Issued at 3:41 pm CDT Saturday 28 March 2015 (issued every 10 minutes, with the page automatically refreshed every 10 minutes)

About coastal observations | Map of coastal stations | Coastal observations for SA | Marine services | Other Formats
Station Details ID: 090184 Name: CAPE NELSON LIGHTHOUSE Lat: -38.43 Lon: 141.54 Height: 45.4 m
Data from the previous 72 hours. | See also: Recent months at Cape Nelson
Date/Time
CDT
Temp

°C
Wind Pressure Rain
since 9am
mm
Weather Cloud Vis
km
Sea
Height
m
Swell
Dir
 
Speed
knots
Gust
knots
hPa Trend Height
m
Period
s
Dir
28/03:30pm 15.6 W 8 11 1023.0 - 0.2 - - - - - - -
28/03:00pm 15.4 W 10 14 1023.3 - 0.2 - - - - - - -
28/02:30pm 15.6 W 9 14 1023.4 - 0.2 - - - - - - -
28/02:00pm 16.5 WNW 11 15 1023.8 - 0.2 - - - - - - -
28/01:30pm 16.0 WNW 10 13 1024.0 - 0.2 - - - - - - -
28/01:00pm 16.0 WNW 11 15 1024.4 - 0.2 - - - - - - -
28/12:30pm 16.1 NW 10 15 1024.7 - 0.2 - - - - - - -
28/12:00pm 15.8 NW 9 13 1024.9 - 0.2 - - - - - - -
28/11:30am 15.1 WNW 8 11 1025.3 - 0.2 - - - - - - -
28/11:00am 14.6 NW 9 13 1025.7 - 0.2 - - - - - - -
28/10:30am 14.5 NNW 8 10 1025.7 - 0.2 - - - - - - -
28/10:00am 13.6 NNW 8 12 1025.7 - 0.2 - - - - - - -
28/09:30am 12.8 NW 9 12 1025.9 - 0.2 - - - - - - -
28/09:00am 12.4 NNW 10 13 1026.1 - 0.2 - - - - - - -
28/08:30am 12.4 NW 5 8 1025.8 - 8.6 Rain - - - - - -
28/08:00am 12.2 NW 8 11 1025.7 - 6.8 - - - - - - -
28/07:30am 11.7 N 5 7 1025.4 - 6.4 - - - - - - -
28/07:00am 11.2 NNW 4 6 1025.2 - 6.0 - - - - - - -
28/06:30am 11.0 N 3 4 1024.8 - 5.4 - - - - - - -
28/06:00am 11.4 N 4 5 1024.6 - 5.4 - - - - - - -
28/05:30am 12.0 NNW 6 9 1024.6 - 5.4 Recent precip. - - - - - -
28/05:00am 12.3 NNE 4 7 1024.7 - 5.4 - - - - - - -
28/04:30am 12.5 W 8 11 1024.8 - 5.0 - - - - - - -
28/04:00am 11.8 NNW 4 5 1024.8 - 3.2 - - - - - - -
28/03:30am 11.7 NNW 4 5 1024.9 - 3.2 - - - - - - -
28/03:00am 12.1 NNW 3 5 1025.2 - 3.2 - - - - - - -
28/02:30am 12.2 S 1 4 1025.3 - 3.2 Recent precip. - - - - - -
28/02:00am 12.5 W 6 10 1025.7 - 3.2 - - - - - - -
28/01:30am 12.7 E 3 5 1026.0 - 3.0 - - - - - - -
28/01:00am 13.0 SSE 4 7 1025.8 - 2.8 - - - - - - -
28/12:30am 12.8 S 4 5 1025.9 - 2.8 - - - - - - -
28/12:00am 12.7 S 5 7 1026.0 - 2.8 - - - - - - -
 
Date/Time
CDT
Temp

°C
Wind Pressure Rain
since 9am
mm
Weather Cloud Vis
km
Sea
Height
m
Swell
Dir
 
Speed
knots
Gust
knots
hPa Trend Height
m
Period
s
Dir
27/11:30pm 12.8 S 3 6 1026.1 - 2.8 Rain - - - - - -
27/11:00pm 13.0 S 6 10 1026.3 - 2.6 - - - - - - -
27/10:30pm 13.1 S 8 11 1026.3 - 2.6 - - - - - - -
27/10:00pm 12.8 S 5 7 1026.4 - 2.6 - - - - - - -
27/09:30pm 12.7 S 7 11 1026.6 - 2.6 - - - - - - -
27/09:00pm 13.3 ESE 6 11 1026.5 - 2.6 - - - - - - -
27/08:30pm 13.5 S 7 10 1026.3 - 2.4 - - - - - - -
27/08:00pm 13.6 S 8 12 1026.2 - 2.4 - - - - - - -
27/07:30pm 13.4 S 8 13 1026.0 - 2.4 - - - - - - -
27/07:00pm 13.4 S 9 13 1025.8 - 2.4 - - - - - - -
27/06:30pm 14.0 ESE 4 7 1025.6 - 2.2 - - - - - - -
27/06:00pm 14.2 ESE 5 10 1025.5 - 2.2 - - - - - - -
27/05:30pm 14.2 SSE 7 13 1025.3 - 2.2 - - - - - - -
27/05:00pm 14.5 S 9 13 1025.3 - 2.2 - - - - - - -
27/04:30pm 14.9 S 10 16 1025.3 - 2.2 - - - - - - -
27/04:00pm 14.7 S 11 17 1025.3 - 2.2 - - - - - - -
27/03:30pm 14.8 S 10 15 1025.4 - 2.2 - - - - - - -
27/03:00pm 14.8 S 11 14 1025.3 - 2.2 - - - - - - -
27/02:30pm 15.1 S 10 14 1025.5 - 2.2 - - - - - - -
27/02:00pm 13.8 SSW 7 9 1025.8 - 2.2 - - - - - - -
27/01:30pm 13.9 S 10 16 1025.9 - 2.2 - - - - - - -
27/01:00pm 13.7 S 8 12 1026.1 - 2.2 - - - - - - -
27/12:30pm 12.6 S 16 22 1026.4 - 2.2 - - - - - - -
27/12:00pm 14.2 W 11 17 1026.3 - 0.0 - - - - - - -
27/11:30am 15.6 NE 7 11 1026.1 - 0.0 - - - - - - -
27/11:00am 15.5 NNW 8 13 1026.1 - 0.0 - - - - - - -
27/10:30am 15.5 SSE 9 18 1025.8 - 0.0 - - - - - - -
27/10:00am 14.2 S 14 19 1026.0 - 0.0 - - - - - - -
27/09:30am 14.1 S 15 23 1025.8 - 0.0 - - - - - - -
27/09:00am 13.8 S 17 30 1025.4 - 0.0 - - - - - - -
27/08:58am 13.7 S 15 27 1025.4 - 0.0 - - - - - - -
27/08:30am 13.8 SSE 12 23 1025.1 - 3.4 - - - - - - -
27/08:00am 13.2 SSE 11 18 1024.7 - 3.4 - - - - - - -
27/07:30am 12.8 SSE 10 19 1024.7 - 3.4 - - - - - - -
27/07:00am 12.6 NE 10 20 1024.0 - 3.4 - - - - - - -
27/06:30am 13.0 NE 11 19 1023.8 - 3.4 - - - - - - -
27/06:00am 12.8 SSE 11 21 1023.4 - 3.4 - - - - - - -
27/05:30am 13.0 ESE 11 20 1023.1 - 3.4 Recent precip. - - - - - -
27/05:00am 13.2 SE 11 21 1023.1 - 3.4 - - - - - - -
27/04:30am 12.9 ESE 11 20 1023.0 - 3.2 - - - - - - -
27/04:00am 12.9 NE 12 21 1022.7 - 3.2 - - - - - - -
27/03:30am 14.0 E 11 21 1022.5 - 3.2 - - - - - - -
27/03:00am 13.8 ESE 11 21 1022.5 - 3.2 - - - - - - -
27/02:30am 13.7 S 12 20 1022.5 - 3.2 - - - - - - -
27/02:00am 13.7 SE 12 21 1022.4 - 3.2 - - - - - - -
27/01:30am 13.6 SSE 12 23 1022.5 - 3.2 - - - - - - -
27/01:00am 13.9 ENE 12 20 1022.2 - 3.2 - - - - - - -
27/12:30am 13.7 NE 11 21 1022.4 - 3.2 - - - - - - -
27/12:00am 14.0 SE 12 23 1022.2 - 3.2 - - - - - - -
 
Date/Time
CDT
Temp

°C
Wind Pressure Rain
since 9am
mm
Weather Cloud Vis
km
Sea
Height
m
Swell
Dir
 
Speed
knots
Gust
knots
hPa Trend Height
m
Period
s
Dir
26/11:30pm 14.1 SSE 13 22 1022.1 - 3.2 - - - - - - -
26/11:00pm 14.0 SE 14 27 1022.0 - 3.2 - - - - - - -
26/10:35pm 13.9 SE 14 26 1021.7 - 3.2 - - - - - - -
26/10:30pm 13.9 SSE 13 27 1021.8 - 3.2 - - - - - - -
26/10:11pm 14.0 S 15 25 1021.7 - 3.2 - - - - - - -
26/10:00pm 14.0 SSE 13 22 1021.5 - 3.2 - - - - - - -
26/09:31pm 14.1 SE 13 27 1021.1 - 3.2 - - - - - - -
26/09:30pm 14.2 SE 13 27 1021.1 - 3.2 - - - - - - -
26/09:07pm 14.4 S 15 25 1021.0 - 3.2 - - - - - - -
26/09:00pm 14.3 SSE 14 25 1020.9 - 3.2 - - - - - - -
26/08:41pm 14.1 SE 15 27 1020.3 - 3.2 - - - - - - -
26/08:30pm 14.1 ESE 15 35 1020.2 - 3.2 - - - - - - -
26/08:00pm 13.6 SE 15 32 1019.8 - 3.2 - - - - - - -
26/07:51pm 13.9 ESE 15 27 1019.4 - 3.2 - - - - - - -
26/07:30pm 13.9 SE 13 29 1019.3 - 3.2 - - - - - - -
26/07:16pm 13.7 NE 13 25 1019.2 - 3.2 - - - - - - -
26/07:00pm 14.0 NNE 13 19 1018.7 - 3.2 - - - - - - -
26/06:45pm 13.6 NE 13 25 1018.3 - 3.2 - - - - - - -
26/06:30pm 13.8 NNE 13 27 1018.4 - 2.8 - - - - - - -
26/06:00pm 13.9 NNW 12 23 1017.9 - 2.2 - - - - - - -
26/05:30pm 13.7 WNW 19 34 1017.5 - 2.2 Rain - - - - - -
26/05:02pm 14.8 WNW 18 29 1016.9 - 2.0 - - - - - - -
26/05:00pm 14.6 WNW 18 28 1016.8 - 2.0 - - - - - - -
26/04:30pm 14.7 W 29 41 1016.6 - 2.0 - - - - - - -
26/04:00pm 14.2 W 29 39 1016.0 - 2.0 - - - - - - -
26/03:30pm 14.1 W 32 45 1015.9 - 2.0 - - - - - - -
26/03:00pm 13.6 W 35 45 1015.7 - 2.0 - - - - - - -
26/02:30pm 13.2 W 35 48 1015.5 - 1.8 Recent precip. - - - - - -
26/02:00pm 13.3 W 35 48 1015.2 - 1.8 - - - - - - -
26/01:30pm 13.3 W 29 44 1015.2 - 1.6 - - - - - - -
26/01:00pm 13.6 W 28 48 1015.1 - 1.4 - - - - - - -
26/12:30pm 12.8 W 25 40 1015.3 - 1.2 - - - - - - -
26/12:13pm 12.9 W 26 49 1015.3 - 1.2 - - - - - - -
26/12:00pm 13.1 W 22 36 1015.5 - 1.2 - - - - - - -
26/11:30am 12.6 W 22 37 1015.8 - 1.2 Recent precip. - - - - - -
26/11:00am 12.1 W 21 33 1015.9 - 1.2 - - - - - - -
26/10:30am 12.8 W 23 40 1015.8 - 1.0 - - - - - - -
26/10:00am 11.8 W 21 33 1015.7 - 0.8 - - - - - - -
26/09:30am 11.3 W 21 43 1015.9 - 0.8 - - - - - - -
26/09:00am 13.2 WNW 25 35 1015.5 - 0.0 - - - - - - -
26/08:30am 13.3 W 21 35 1015.3 - 13.8 - - - - - - -
26/08:00am 12.9 W 21 33 1015.3 - 13.8 - - - - - - -
26/07:30am 12.1 W 23 35 1015.1 - 13.8 - - - - - - -
26/07:04am 12.8 W 24 35 1014.7 - 13.8 - - - - - - -
26/07:00am 12.0 W 20 32 1014.6 - 13.8 - - - - - - -
26/06:56am 11.9 W 15 27 1014.7 - 13.8 - - - - - - -
26/06:30am 10.2 W 16 21 1015.0 - 13.8 - - - - - - -
26/06:14am 10.4 NW 15 36 1015.1 - 13.8 - - - - - - -
26/06:00am 10.8 N 11 26 1014.6 - 13.2 - - - - - - -
26/05:53am 11.5 WNW 18 34 1014.3 - 13.2 - - - - - - -
26/05:39am 11.9 W 20 30 1014.7 - 13.2 - - - - - - -
26/05:30am 12.0 W 24 33 1014.5 - 13.2 Recent precip. - - - - - -
26/05:11am 12.0 W 23 33 1014.2 - 13.2 - - - - - - -
26/05:00am 11.8 W 23 32 1014.1 - 13.2 - - - - - - -
26/04:44am 10.6 WNW 16 31 1014.1 - 13.2 - - - - - - -
26/04:30am 9.7 WNW 15 21 1014.4 - 13.0 - - - - - - -
26/04:00am 10.1 W 23 34 1014.5 - 11.8 - - - - - - -
26/03:30am 11.1 W 24 35 1014.2 - 10.8 - - - - - - -
26/03:00am 12.0 W 24 37 1013.5 - 10.8 - - - - - - -
26/02:46am 12.9 WNW 21 31 1013.4 - 10.8 - - - - - - -
26/02:30am 12.9 W 20 29 1013.6 - 10.8 - - - - - - -
26/02:00am 12.9 W 17 27 1013.7 - 10.8 - - - - - - -
26/01:40am 11.8 WNW 14 26 1013.7 - 10.8 - - - - - - -
26/01:30am 11.4 NE 9 17 1013.6 - 10.8 - - - - - - -
26/01:00am 11.3 NNE 12 20 1013.5 - 10.4 - - - - - - -
26/12:37am 12.7 W 15 26 1013.6 - 10.4 - - - - - - -
26/12:30am 12.6 W 14 23 1013.7 - 10.4 - - - - - - -
26/12:03am 12.1 WNW 19 29 1013.7 - 10.4 - - - - - - -
26/12:00am 12.2 WNW 20 29 1013.7 - 10.4 - - - - - - -
 
Date/Time
CDT
Temp

°C
Wind Pressure Rain
since 9am
mm
Weather Cloud Vis
km
Sea
Height
m
Swell
Dir
 
Speed
knots
Gust
knots
hPa Trend Height
m
Period
s
Dir
25/11:30pm 12.3 W 17 27 1013.7 - 10.4 Recent precip. - - - - - -
25/11:07pm 11.9 W 15 25 1013.6 - 10.4 - - - - - - -
25/11:00pm 11.5 W 14 20 1013.6 - 10.4 - - - - - - -
25/10:30pm 12.0 WNW 21 39 1013.3 - 9.8 - - - - - - -
25/10:29pm 12.3 WNW 21 37 1013.3 - 9.8 - - - - - - -
25/10:00pm 10.6 NW 10 25 1013.5 - 9.8 - - - - - - -
25/09:30pm 10.1 NNW 12 17 1013.5 - 8.6 - - - - - - -
25/09:00pm 10.4 NW 15 23 1013.5 - 8.6 - - - - - - -
25/08:34pm 11.2 WNW 16 27 1013.1 - 6.8 - - - - - - -
25/08:30pm 11.0 WNW 16 23 1012.9 - 6.8 Rain - - - - - -
25/08:00pm 10.6 WNW 17 23 1012.9 - 5.0 - - - - - - -
25/07:30pm 10.8 W 19 31 1013.1 - 3.4 - - - - - - -
25/07:00pm 11.4 W 24 35 1012.8 - 2.2 - - - - - - -
25/06:33pm 11.4 W 28 39 1012.2 - 1.4 - - - - - - -
25/06:30pm 11.6 W 28 37 1012.0 - 1.4 - - - - - - -
25/06:00pm 13.9 WNW 22 33 1011.7 - 0.2 - - - - - - -
25/05:35pm 16.6 WNW 18 30 1010.8 - 0.0 - - - - - - -
25/05:30pm 17.5 WNW 15 24 1010.8 - 0.0 - - - - - - -
25/05:19pm 18.2 NW 15 26 1010.7 - 0.0 - - - - - - -
25/05:00pm 18.4 NNW 14 20 1010.5 - 0.0 - - - - - - -
25/04:30pm 18.8 NNW 15 24 1010.7 - 0.0 - - - - - - -
25/04:03pm 20.1 NNW 17 27 1010.7 - 0.0 - - - - - - -
25/04:00pm 20.0 NNW 16 24 1010.7 - 0.0 - - - - - - -
25/03:50pm 20.4 NNW 17 28 1011.0 - 0.0 - - - - - - -
25/03:30pm 20.7 NW 16 21 1011.6 - 0.0 - - - - - - -

Other Formats:

Comma delimited format used in spreadsheet applications
http://www.bom.gov.au/fwo/IDS60701/IDS60701.94826.axf

JavaScript Object Notation format (JSON) in row-major order
http://www.bom.gov.au/fwo/IDS60701/IDS60701.94826.json